Time,TemperatureF,DewpointF,PressureIn,WindDirection,WindDirectionDegrees,WindSpeedMPH,WindSpeedGustMPH,Humidity,HourlyPrecipIn,Conditions,Clouds,dailyrainin,SolarRadiationWatts/m^2,SoftwareType,DateUTC
2013-08-10 00:02:00,57.0,49.0,30.05,North,-999,-999.0,-999.0,75,-99.99,,,-99.99,1420.000000,,2013-08-10 05:02:00,
2013-08-10 00:11:00,57.0,50.0,30.05,North,-999,-999.0,-999.0,76,-99.99,,,-99.99,1420.000000,,2013-08-10 05:11:00,
2013-08-10 00:22:00,57.0,49.0,30.05,North,-999,-999.0,-999.0,75,-99.99,,,-99.99,1420.000000,,2013-08-10 05:22:00,
2013-08-10 00:32:00,58.0,50.0,30.05,North,-999,-999.0,-999.0,74,-99.99,,,-99.99,1420.000000,,2013-08-10 05:32:00,
2013-08-10 00:43:00,59.0,51.0,30.05,North,-999,-999.0,-999.0,74,-99.99,,,-99.99,1420.000000,,2013-08-10 05:43:00,
2013-08-10 00:52:00,59.0,51.0,30.05,North,-999,-999.0,-999.0,74,-99.99,,,-99.99,1420.000000,,2013-08-10 05:52:00,
2013-08-10 01:02:00,60.0,52.0,30.08,North,-999,-999.0,-999.0,75,-99.99,,,-99.99,1420.000000,,2013-08-10 06:02:00,
2013-08-10 01:11:00,60.0,52.0,30.08,North,-999,-999.0,-999.0,74,-99.99,,,-99.99,1420.000000,,2013-08-10 06:11:00,
2013-08-10 01:22:00,60.0,51.0,30.08,North,-999,-999.0,-999.0,73,-99.99,,,-99.99,1420.000000,,2013-08-10 06:22:00,
2013-08-10 01:32:00,60.0,51.0,30.08,North,-999,-999.0,-999.0,73,-99.99,,,-99.99,1420.000000,,2013-08-10 06:32:00,
2013-08-10 01:44:00,60.0,51.0,30.08,North,-999,-999.0,-999.0,73,-99.99,,,-99.99,1420.000000,,2013-08-10 06:44:00,
2013-08-10 01:53:00,59.0,51.0,30.08,North,-999,-999.0,-999.0,74,-99.99,,,-99.99,1420.000000,,2013-08-10 06:53:00,
2013-08-10 02:02:00,59.0,51.0,30.08,North,-999,-999.0,-999.0,74,-99.99,,,-99.99,1420.000000,,2013-08-10 07:02:00,
2013-08-10 02:12:00,59.0,51.0,30.08,North,-999,-999.0,-999.0,75,-99.99,,,-99.99,1420.000000,,2013-08-10 07:12:00,
2013-08-10 02:22:00,60.0,52.0,30.08,North,-999,-999.0,-999.0,75,-99.99,,,-99.99,1420.000000,,2013-08-10 07:22:00,
2013-08-10 02:33:00,60.0,52.0,30.08,North,-999,-999.0,-999.0,76,-99.99,,,-99.99,1420.000000,,2013-08-10 07:33:00,
2013-08-10 02:43:00,59.0,51.0,30.08,North,-999,-999.0,-999.0,76,-99.99,,,-99.99,1420.000000,,2013-08-10 07:43:00,
2013-08-10 02:52:00,59.0,52.0,30.08,North,-999,-999.0,-999.0,77,-99.99,,,-99.99,1420.000000,,2013-08-10 07:52:00,
2013-08-10 03:01:00,59.0,52.0,30.08,North,-999,-999.0,-999.0,77,-99.99,,,-99.99,1420.000000,,2013-08-10 08:01:00,
2013-08-10 03:12:00,58.0,51.0,30.08,North,-999,-999.0,-999.0,78,-99.99,,,-99.99,1420.000000,,2013-08-10 08:12:00,
2013-08-10 03:22:00,58.0,51.0,30.08,North,-999,-999.0,-999.0,78,-99.99,,,-99.99,1420.000000,,2013-08-10 08:22:00,
2013-08-10 03:32:00,57.0,51.0,30.08,North,-999,-999.0,-999.0,79,-99.99,,,-99.99,1420.000000,,2013-08-10 08:32:00,
2013-08-10 03:43:00,57.0,51.0,30.08,North,-999,-999.0,-999.0,80,-99.99,,,-99.99,1420.000000,,2013-08-10 08:43:00,
2013-08-10 03:53:00,57.0,51.0,30.08,North,-999,-999.0,-999.0,80,-99.99,,,-99.99,1420.000000,,2013-08-10 08:53:00,
2013-08-10 04:02:00,57.0,51.0,30.11,North,-999,-999.0,-999.0,80,-99.99,,,-99.99,1420.000000,,2013-08-10 09:02:00,
2013-08-10 04:12:00,57.0,51.0,30.11,North,-999,-999.0,-999.0,80,-99.99,,,-99.99,1420.000000,,2013-08-10 09:12:00,
2013-08-10 04:22:00,57.0,51.0,30.11,North,-999,-999.0,-999.0,80,-99.99,,,-99.99,1420.000000,,2013-08-10 09:22:00,
2013-08-10 04:32:00,58.0,52.0,30.11,North,-999,-999.0,-999.0,81,-99.99,,,-99.99,1420.000000,,2013-08-10 09:32:00,
2013-08-10 04:43:00,58.0,52.0,30.11,North,-999,-999.0,-999.0,81,-99.99,,,-99.99,1420.000000,,2013-08-10 09:43:00,
2013-08-10 04:52:00,58.0,52.0,30.11,North,-999,-999.0,-999.0,81,-99.99,,,-99.99,1420.000000,,2013-08-10 09:52:00,
2013-08-10 05:02:00,57.0,52.0,30.08,North,-999,-999.0,-999.0,82,-99.99,,,-99.99,1420.000000,,2013-08-10 10:02:00,
2013-08-10 05:11:00,57.0,52.0,30.08,North,-999,-999.0,-999.0,82,-99.99,,,-99.99,1420.000000,,2013-08-10 10:11:00,
2013-08-10 05:22:00,57.0,52.0,30.11,North,-999,-999.0,-999.0,83,-99.99,,,-99.99,1420.000000,,2013-08-10 10:22:00,
2013-08-10 05:33:00,57.0,52.0,30.11,North,-999,-999.0,-999.0,83,-99.99,,,-99.99,1420.000000,,2013-08-10 10:33:00,
2013-08-10 05:44:00,56.0,51.0,30.11,North,-999,-999.0,-999.0,83,-99.99,,,-99.99,1420.000000,,2013-08-10 10:44:00,
2013-08-10 05:52:00,56.0,51.0,30.11,North,-999,-999.0,-999.0,83,-99.99,,,-99.99,1420.000000,,2013-08-10 10:52:00,
2013-08-10 06:02:00,56.0,51.0,30.11,North,-999,-999.0,-999.0,83,-99.99,,,-99.99,1420.000000,,2013-08-10 11:02:00,
2013-08-10 06:11:00,55.0,50.0,30.11,North,-999,-999.0,-999.0,84,-99.99,,,-99.99,1420.000000,,2013-08-10 11:11:00,
2013-08-10 06:22:00,55.0,50.0,30.11,North,-999,-999.0,-999.0,84,-99.99,,,-99.99,1420.000000,,2013-08-10 11:22:00,
2013-08-10 06:33:00,55.0,50.0,30.11,North,-999,-999.0,-999.0,84,-99.99,,,-99.99,1420.000000,,2013-08-10 11:33:00,
2013-08-10 06:43:00,55.0,50.0,30.11,North,-999,-999.0,-999.0,84,-99.99,,,-99.99,1420.000000,,2013-08-10 11:43:00,
2013-08-10 06:53:00,55.0,51.0,30.11,North,-999,-999.0,-999.0,86,-99.99,,,-99.99,1420.000000,,2013-08-10 11:53:00,
2013-08-10 07:01:00,55.0,50.0,30.11,North,-999,-999.0,-999.0,84,-99.99,,,-99.99,1420.000000,,2013-08-10 12:01:00,
2013-08-10 07:11:00,55.0,50.0,30.11,North,-999,-999.0,-999.0,84,-99.99,,,-99.99,1420.000000,,2013-08-10 12:11:00,
2013-08-10 07:22:00,55.0,50.0,30.11,North,-999,-999.0,-999.0,84,-99.99,,,-99.99,1420.000000,,2013-08-10 12:22:00,
2013-08-10 07:32:00,63.0,55.0,30.11,North,-999,-999.0,-999.0,76,-99.99,,,-99.99,1420.000000,,2013-08-10 12:32:00,
2013-08-10 09:43:00,72.0,52.0,30.08,North,-999,-999.0,-999.0,49,-99.99,,,-99.99,1420.000000,,2013-08-10 14:43:00,
2013-08-10 09:53:00,71.0,51.0,30.11,North,-999,-999.0,-999.0,50,-99.99,,,-99.99,1420.000000,,2013-08-10 14:53:00,
2013-08-10 10:02:00,72.0,52.0,30.11,North,-999,-999.0,-999.0,50,-99.99,,,-99.99,1420.000000,,2013-08-10 15:02:00,
2013-08-10 10:11:00,72.0,52.0,30.11,North,-999,-999.0,-999.0,50,-99.99,,,-99.99,1420.000000,,2013-08-10 15:11:00,
2013-08-10 10:22:00,72.0,52.0,30.11,North,-999,-999.0,-999.0,50,-99.99,,,-99.99,1420.000000,,2013-08-10 15:22:00,
2013-08-10 10:43:00,72.0,52.0,30.11,North,-999,-999.0,-999.0,50,-99.99,,,-99.99,1420.000000,,2013-08-10 15:43:00,
2013-08-10 10:52:00,72.0,52.0,30.11,North,-999,-999.0,-999.0,50,-99.99,,,-99.99,1420.000000,,2013-08-10 15:52:00,
2013-08-10 11:01:00,72.0,53.0,30.11,North,-999,-999.0,-999.0,52,-99.99,,,-99.99,1420.000000,,2013-08-10 16:01:00,
2013-08-10 11:11:00,72.0,53.0,30.11,North,-999,-999.0,-999.0,52,-99.99,,,-99.99,1420.000000,,2013-08-10 16:11:00,
2013-08-10 11:22:00,75.0,51.0,30.11,North,-999,-999.0,-999.0,43,-99.99,,,-99.99,1420.000000,,2013-08-10 16:22:00,
2013-08-10 11:32:00,75.0,51.0,30.11,North,-999,-999.0,-999.0,43,-99.99,,,-99.99,1420.000000,,2013-08-10 16:32:00,
2013-08-10 11:43:00,75.0,52.0,30.11,North,-999,-999.0,-999.0,45,-99.99,,,-99.99,1420.000000,,2013-08-10 16:43:00,
2013-08-10 11:53:00,75.0,52.0,30.11,North,-999,-999.0,-999.0,45,-99.99,,,-99.99,1420.000000,,2013-08-10 16:53:00,
2013-08-10 12:02:00,74.0,51.0,30.11,North,-999,-999.0,-999.0,44,-99.99,,,-99.99,1420.000000,,2013-08-10 17:02:00,
2013-08-10 12:12:00,75.0,51.0,30.11,North,-999,-999.0,-999.0,43,-99.99,,,-99.99,1420.000000,,2013-08-10 17:12:00,
2013-08-10 12:22:00,76.0,52.0,30.11,North,-999,-999.0,-999.0,43,-99.99,,,-99.99,1420.000000,,2013-08-10 17:22:00,
2013-08-10 12:33:00,77.0,52.0,30.11,North,-999,-999.0,-999.0,42,-99.99,,,-99.99,1420.000000,,2013-08-10 17:33:00,
2013-08-10 12:43:00,77.0,51.0,30.11,North,-999,-999.0,-999.0,41,-99.99,,,-99.99,1420.000000,,2013-08-10 17:43:00,
2013-08-10 12:52:00,78.0,52.0,30.11,North,-999,-999.0,-999.0,41,-99.99,,,-99.99,1420.000000,,2013-08-10 17:52:00,
2013-08-10 13:01:00,78.0,53.0,30.11,North,-999,-999.0,-999.0,42,-99.99,,,-99.99,1420.000000,,2013-08-10 18:01:00,
2013-08-10 13:11:00,78.0,52.0,30.08,North,-999,-999.0,-999.0,41,-99.99,,,-99.99,1420.000000,,2013-08-10 18:11:00,
2013-08-10 13:23:00,79.0,53.0,30.08,North,-999,-999.0,-999.0,41,-99.99,,,-99.99,1420.000000,,2013-08-10 18:23:00,
2013-08-10 13:32:00,79.0,53.0,30.08,North,-999,-999.0,-999.0,41,-99.99,,,-99.99,1420.000000,,2013-08-10 18:32:00,
2013-08-10 13:44:00,79.0,53.0,30.11,North,-999,-999.0,-999.0,40,-99.99,,,-99.99,1420.000000,,2013-08-10 18:44:00,
2013-08-10 13:52:00,79.0,53.0,30.11,North,-999,-999.0,-999.0,40,-99.99,,,-99.99,1420.000000,,2013-08-10 18:52:00,
2013-08-10 14:02:00,80.0,55.0,30.11,North,-999,-999.0,-999.0,42,-99.99,,,-99.99,1420.000000,,2013-08-10 19:02:00,
2013-08-10 14:11:00,78.0,52.0,30.08,North,-999,-999.0,-999.0,41,-99.99,,,-99.99,1420.000000,,2013-08-10 19:11:00,
2013-08-10 14:22:00,78.0,52.0,30.08,North,-999,-999.0,-999.0,40,-99.99,,,-99.99,1420.000000,,2013-08-10 19:22:00,
2013-08-10 14:33:00,79.0,53.0,30.08,North,-999,-999.0,-999.0,40,-99.99,,,-99.99,1420.000000,,2013-08-10 19:33:00,
2013-08-10 14:44:00,79.0,52.0,30.08,North,-999,-999.0,-999.0,39,-99.99,,,-99.99,1420.000000,,2013-08-10 19:44:00,
2013-08-10 14:53:00,79.0,53.0,30.08,North,-999,-999.0,-999.0,40,-99.99,,,-99.99,1420.000000,,2013-08-10 19:53:00,
2013-08-10 15:02:00,79.0,52.0,30.08,North,-999,-999.0,-999.0,39,-99.99,,,-99.99,1420.000000,,2013-08-10 20:02:00,
2013-08-10 15:12:00,79.0,51.0,30.08,North,-999,-999.0,-999.0,38,-99.99,,,-99.99,1420.000000,,2013-08-10 20:12:00,
2013-08-10 15:22:00,79.0,51.0,30.08,North,-999,-999.0,-999.0,38,-99.99,,,-99.99,1420.000000,,2013-08-10 20:22:00,
2013-08-10 15:33:00,79.0,53.0,30.08,North,-999,-999.0,-999.0,40,-99.99,,,-99.99,1420.000000,,2013-08-10 20:33:00,
2013-08-10 15:43:00,79.0,51.0,30.08,North,-999,-999.0,-999.0,38,-99.99,,,-99.99,1420.000000,,2013-08-10 20:43:00,
2013-08-10 15:53:00,78.0,52.0,30.08,North,-999,-999.0,-999.0,41,-99.99,,,-99.99,1420.000000,,2013-08-10 20:53:00,
2013-08-10 16:02:00,78.0,52.0,30.08,North,-999,-999.0,-999.0,40,-99.99,,,-99.99,1420.000000,,2013-08-10 21:02:00,
2013-08-10 16:12:00,79.0,53.0,30.08,North,-999,-999.0,-999.0,41,-99.99,,,-99.99,1420.000000,,2013-08-10 21:12:00,
2013-08-10 16:22:00,77.0,52.0,30.08,North,-999,-999.0,-999.0,42,-99.99,,,-99.99,1420.000000,,2013-08-10 21:22:00,
2013-08-10 16:32:00,78.0,53.0,30.08,North,-999,-999.0,-999.0,42,-99.99,,,-99.99,1420.000000,,2013-08-10 21:32:00,
2013-08-10 16:42:00,78.0,53.0,30.08,North,-999,-999.0,-999.0,42,-99.99,,,-99.99,1420.000000,,2013-08-10 21:42:00,
2013-08-10 16:52:00,76.0,51.0,30.08,North,-999,-999.0,-999.0,42,-99.99,,,-99.99,1420.000000,,2013-08-10 21:52:00,
2013-08-10 17:01:00,77.0,53.0,30.08,North,-999,-999.0,-999.0,43,-99.99,,,-99.99,1420.000000,,2013-08-10 22:01:00,
2013-08-10 17:11:00,78.0,53.0,30.08,North,-999,-999.0,-999.0,42,-99.99,,,-99.99,1420.000000,,2013-08-10 22:11:00,
2013-08-10 17:21:00,76.0,52.0,30.05,North,-999,-999.0,-999.0,43,-99.99,,,-99.99,1420.000000,,2013-08-10 22:21:00,
2013-08-10 17:32:00,76.0,52.0,30.05,North,-999,-999.0,-999.0,43,-99.99,,,-99.99,1420.000000,,2013-08-10 22:32:00,
2013-08-10 17:43:00,76.0,51.0,30.05,North,-999,-999.0,-999.0,42,-99.99,,,-99.99,1420.000000,,2013-08-10 22:43:00,
2013-08-10 17:52:00,76.0,51.0,30.05,North,-999,-999.0,-999.0,42,-99.99,,,-99.99,1420.000000,,2013-08-10 22:52:00,
2013-08-10 18:01:00,76.0,51.0,30.05,North,-999,-999.0,-999.0,42,-99.99,,,-99.99,1420.000000,,2013-08-10 23:01:00,
2013-08-10 18:12:00,76.0,51.0,30.05,North,-999,-999.0,-999.0,42,-99.99,,,-99.99,1420.000000,,2013-08-10 23:12:00,
2013-08-10 18:22:00,76.0,51.0,30.05,North,-999,-999.0,-999.0,42,-99.99,,,-99.99,1420.000000,,2013-08-10 23:22:00,
2013-08-10 18:32:00,76.0,52.0,30.05,North,-999,-999.0,-999.0,43,-99.99,,,-99.99,1420.000000,,2013-08-10 23:32:00,
2013-08-10 18:43:00,76.0,51.0,30.05,North,-999,-999.0,-999.0,42,-99.99,,,-99.99,1420.000000,,2013-08-10 23:43:00,
2013-08-10 18:53:00,76.0,52.0,30.05,North,-999,-999.0,-999.0,43,-99.99,,,-99.99,1420.000000,,2013-08-10 23:53:00,
2013-08-10 19:02:00,76.0,52.0,30.05,North,-999,-999.0,-999.0,43,-99.99,,,-99.99,1420.000000,,2013-08-11 00:02:00,
2013-08-10 19:11:00,76.0,52.0,30.05,North,-999,-999.0,-999.0,43,-99.99,,,-99.99,1420.000000,,2013-08-11 00:11:00,
2013-08-10 19:22:00,76.0,52.0,30.05,North,-999,-999.0,-999.0,43,-99.99,,,-99.99,1420.000000,,2013-08-11 00:22:00,
2013-08-10 19:32:00,74.0,51.0,30.05,North,-999,-999.0,-999.0,45,-99.99,,,-99.99,1420.000000,,2013-08-11 00:32:00,
2013-08-10 19:42:00,73.0,51.0,30.05,North,-999,-999.0,-999.0,46,-99.99,,,-99.99,1420.000000,,2013-08-11 00:42:00,
2013-08-10 19:52:00,72.0,51.0,30.05,North,-999,-999.0,-999.0,47,-99.99,,,-99.99,1420.000000,,2013-08-11 00:52:00,
2013-08-10 20:01:00,71.0,50.0,30.05,North,-999,-999.0,-999.0,48,-99.99,,,-99.99,1420.000000,,2013-08-11 01:01:00,
2013-08-10 20:11:00,69.0,52.0,30.05,North,-999,-999.0,-999.0,55,-99.99,,,-99.99,1420.000000,,2013-08-11 01:11:00,
2013-08-10 20:22:00,68.0,53.0,30.05,North,-999,-999.0,-999.0,58,-99.99,,,-99.99,1420.000000,,2013-08-11 01:22:00,
2013-08-10 20:32:00,67.0,52.0,30.05,North,-999,-999.0,-999.0,59,-99.99,,,-99.99,1420.000000,,2013-08-11 01:32:00,
2013-08-10 20:43:00,65.0,52.0,30.05,North,-999,-999.0,-999.0,63,-99.99,,,-99.99,1420.000000,,2013-08-11 01:43:00,
2013-08-10 20:53:00,65.0,52.0,30.05,North,-999,-999.0,-999.0,63,-99.99,,,-99.99,1420.000000,,2013-08-11 01:53:00,
2013-08-10 21:02:00,65.0,52.0,30.05,North,-999,-999.0,-999.0,63,-99.99,,,-99.99,1420.000000,,2013-08-11 02:02:00,
2013-08-10 21:11:00,65.0,52.0,30.05,North,-999,-999.0,-999.0,63,-99.99,,,-99.99,1420.000000,,2013-08-11 02:11:00,
2013-08-10 21:22:00,62.0,51.0,30.05,North,-999,-999.0,-999.0,67,-99.99,,,-99.99,1420.000000,,2013-08-11 02:22:00,
2013-08-10 21:32:00,62.0,51.0,30.05,North,-999,-999.0,-999.0,68,-99.99,,,-99.99,1420.000000,,2013-08-11 02:32:00,
2013-08-10 21:43:00,62.0,51.0,30.05,North,-999,-999.0,-999.0,68,-99.99,,,-99.99,1420.000000,,2013-08-11 02:43:00,
2013-08-10 21:57:00,62.0,51.0,30.05,North,-999,-999.0,-999.0,68,-99.99,,,-99.99,1420.000000,,2013-08-11 02:57:00,
2013-08-10 22:05:00,61.0,52.0,30.05,North,-999,-999.0,-999.0,71,-99.99,,,-99.99,1420.000000,,2013-08-11 03:05:00,
2013-08-10 22:17:00,61.0,52.0,30.05,North,-999,-999.0,-999.0,71,-99.99,,,-99.99,1420.000000,,2013-08-11 03:17:00,
2013-08-10 22:35:00,60.0,51.0,30.05,North,-999,-999.0,-999.0,73,-99.99,,,-99.99,1420.000000,,2013-08-11 03:35:00,
2013-08-10 22:44:00,59.0,50.0,30.05,North,-999,-999.0,-999.0,73,-99.99,,,-99.99,1420.000000,,2013-08-11 03:44:00,
2013-08-10 23:01:00,59.0,51.0,30.05,North,-999,-999.0,-999.0,74,-99.99,,,-99.99,1420.000000,,2013-08-11 04:01:00,
2013-08-10 23:12:00,59.0,51.0,30.05,North,-999,-999.0,-999.0,76,-99.99,,,-99.99,1420.000000,,2013-08-11 04:12:00,
2013-08-10 23:22:00,58.0,50.0,30.05,North,-999,-999.0,-999.0,75,-99.99,,,-99.99,1420.000000,,2013-08-11 04:22:00,
2013-08-10 23:32:00,58.0,50.0,30.05,North,-999,-999.0,-999.0,75,-99.99,,,-99.99,1420.000000,,2013-08-11 04:32:00,
2013-08-10 23:43:00,57.0,50.0,30.05,North,-999,-999.0,-999.0,77,-99.99,,,-99.99,1420.000000,,2013-08-11 04:43:00,
2013-08-10 23:53:00,57.0,50.0,30.05,North,-999,-999.0,-999.0,77,-99.99,,,-99.99,1420.000000,,2013-08-11 04:53:00,